sensor_id;sensor_type;location;lat;lon;timestamp;pressure;altitude;pressure_sealevel;temperature;humidity
57412;BME280;43247;52.828;-8.980;2023-06-01T00:00:36;102714.34;;;17.46;65.36
57412;BME280;43247;52.828;-8.980;2023-06-01T00:01:36;102714.44;;;17.45;65.43
57412;BME280;43247;52.828;-8.980;2023-06-01T00:02:37;102716.33;;;17.43;65.19
57412;BME280;43247;52.828;-8.980;2023-06-01T00:03:37;102717.11;;;17.42;65.26
57412;BME280;43247;52.828;-8.980;2023-06-01T00:04:37;102715.33;;;17.40;65.37
57412;BME280;43247;52.828;-8.980;2023-06-01T00:05:37;102716.96;;;17.38;65.30
57412;BME280;43247;52.828;-8.980;2023-06-01T00:06:37;102716.37;;;17.36;65.48
57412;BME280;43247;52.828;-8.980;2023-06-01T00:07:38;102718.77;;;17.34;65.57
57412;BME280;43247;52.828;-8.980;2023-06-01T00:08:38;102716.90;;;17.32;65.65
57412;BME280;43247;52.828;-8.980;2023-06-01T00:09:38;102717.66;;;17.30;65.78
57412;BME280;43247;52.828;-8.980;2023-06-01T00:10:38;102719.04;;;17.28;65.77
57412;BME280;43247;52.828;-8.980;2023-06-01T00:11:39;102720.77;;;17.26;65.83
57412;BME280;43247;52.828;-8.980;2023-06-01T00:12:39;102718.11;;;17.26;66.35
57412;BME280;43247;52.828;-8.980;2023-06-01T00:13:39;102720.85;;;17.24;66.18
57412;BME280;43247;52.828;-8.980;2023-06-01T00:14:39;102718.00;;;17.22;66.12
57412;BME280;43247;52.828;-8.980;2023-06-01T00:15:39;102718.22;;;17.20;66.19
57412;BME280;43247;52.828;-8.980;2023-06-01T00:16:39;102719.00;;;17.18;66.27
57412;BME280;43247;52.828;-8.980;2023-06-01T00:17:40;102720.25;;;17.17;66.41
57412;BME280;43247;52.828;-8.980;2023-06-01T00:18:40;102719.70;;;17.16;66.69
57412;BME280;43247;52.828;-8.980;2023-06-01T00:19:40;102721.88;;;17.15;66.45
57412;BME280;43247;52.828;-8.980;2023-06-01T00:20:40;102721.74;;;17.15;66.60
57412;BME280;43247;52.828;-8.980;2023-06-01T00:21:40;102723.60;;;17.13;66.67
57412;BME280;43247;52.828;-8.980;2023-06-01T00:22:40;102725.23;;;17.12;66.79
57412;BME280;43247;52.828;-8.980;2023-06-01T00:23:41;102722.55;;;17.10;66.60
57412;BME280;43247;52.828;-8.980;2023-06-01T00:24:41;102727.62;;;17.08;66.61
57412;BME280;43247;52.828;-8.980;2023-06-01T00:25:42;102728.15;;;17.08;66.70
57412;BME280;43247;52.828;-8.980;2023-06-01T00:26:42;102729.75;;;17.08;66.92
57412;BME280;43247;52.828;-8.980;2023-06-01T00:27:42;102730.51;;;17.06;66.74
57412;BME280;43247;52.828;-8.980;2023-06-01T00:28:43;102735.17;;;17.04;66.70
57412;BME280;43247;52.828;-8.980;2023-06-01T00:29:43;102736.01;;;17.02;66.78
57412;BME280;43247;52.828;-8.980;2023-06-01T00:30:43;102735.86;;;17.00;66.91
57412;BME280;43247;52.828;-8.980;2023-06-01T00:31:43;102735.59;;;16.98;66.96
57412;BME280;43247;52.828;-8.980;2023-06-01T00:32:43;102736.66;;;16.97;67.16
57412;BME280;43247;52.828;-8.980;2023-06-01T00:33:43;102736.39;;;16.95;67.32
57412;BME280;43247;52.828;-8.980;2023-06-01T00:34:44;102737.92;;;16.93;67.45
57412;BME280;43247;52.828;-8.980;2023-06-01T00:35:45;102738.28;;;16.91;67.57
57412;BME280;43247;52.828;-8.980;2023-06-01T00:36:45;102739.86;;;16.90;67.63
57412;BME280;43247;52.828;-8.980;2023-06-01T00:37:45;102740.53;;;16.88;67.59
57412;BME280;43247;52.828;-8.980;2023-06-01T00:38:46;102739.65;;;16.87;67.62
57412;BME280;43247;52.828;-8.980;2023-06-01T00:39:46;102742.24;;;16.86;67.68
57412;BME280;43247;52.828;-8.980;2023-06-01T00:40:47;102743.42;;;16.84;67.74
57412;BME280;43247;52.828;-8.980;2023-06-01T00:41:46;102742.30;;;16.83;67.74
57412;BME280;43247;52.828;-8.980;2023-06-01T00:42:47;102746.13;;;16.81;67.82
57412;BME280;43247;52.828;-8.980;2023-06-01T00:43:47;102745.21;;;16.80;67.92
57412;BME280;43247;52.828;-8.980;2023-06-01T00:44:47;102744.49;;;16.78;67.98
57412;BME280;43247;52.828;-8.980;2023-06-01T00:45:48;102745.76;;;16.76;67.95
57412;BME280;43247;52.828;-8.980;2023-06-01T00:46:50;102748.03;;;16.75;68.12
57412;BME280;43247;52.828;-8.980;2023-06-01T00:47:49;102749.91;;;16.73;68.25
57412;BME280;43247;52.828;-8.980;2023-06-01T00:48:50;102750.17;;;16.72;68.29
57412;BME280;43247;52.828;-8.980;2023-06-01T00:49:50;102749.88;;;16.71;68.25
57412;BME280;43247;52.828;-8.980;2023-06-01T00:50:50;102748.34;;;16.70;68.20
57412;BME280;43247;52.828;-8.980;2023-06-01T00:51:51;102750.38;;;16.68;68.16
57412;BME280;43247;52.828;-8.980;2023-06-01T00:52:52;102750.56;;;16.67;68.21
57412;BME280;43247;52.828;-8.980;2023-06-01T00:53:52;102749.93;;;16.65;68.20
57412;BME280;43247;52.828;-8.980;2023-06-01T00:54:52;102750.49;;;16.64;68.26
57412;BME280;43247;52.828;-8.980;2023-06-01T00:55:52;102751.84;;;16.62;68.33
57412;BME280;43247;52.828;-8.980;2023-06-01T00:56:52;102747.21;;;16.60;68.40
57412;BME280;43247;52.828;-8.980;2023-06-01T00:57:55;102743.78;;;16.58;68.50
57412;BME280;43247;52.828;-8.980;2023-06-01T00:58:53;102745.69;;;16.57;68.48
57412;BME280;43247;52.828;-8.980;2023-06-01T00:59:54;102745.78;;;16.56;68.52
57412;BME280;43247;52.828;-8.980;2023-06-01T01:00:53;102743.90;;;16.55;68.57
57412;BME280;43247;52.828;-8.980;2023-06-01T01:01:53;102744.79;;;16.54;68.60
57412;BME280;43247;52.828;-8.980;2023-06-01T01:02:53;102742.62;;;16.52;68.66
57412;BME280;43247;52.828;-8.980;2023-06-01T01:03:54;102739.00;;;16.51;68.70
57412;BME280;43247;52.828;-8.980;2023-06-01T01:04:54;102738.37;;;16.49;68.67
57412;BME280;43247;52.828;-8.980;2023-06-01T01:06:03;102740.17;;;16.48;68.67
57412;BME280;43247;52.828;-8.980;2023-06-01T01:07:02;102737.58;;;16.47;68.73
57412;BME280;43247;52.828;-8.980;2023-06-01T01:08:01;102739.82;;;16.45;68.78
57412;BME280;43247;52.828;-8.980;2023-06-01T01:09:06;102739.46;;;16.44;68.90
57412;BME280;43247;52.828;-8.980;2023-06-01T01:10:00;102737.85;;;16.44;69.20
57412;BME280;43247;52.828;-8.980;2023-06-01T01:11:01;102737.86;;;16.43;68.83
57412;BME280;43247;52.828;-8.980;2023-06-01T01:12:00;102735.35;;;16.41;68.80
57412;BME280;43247;52.828;-8.980;2023-06-01T01:13:05;102735.54;;;16.39;68.85
57412;BME280;43247;52.828;-8.980;2023-06-01T01:14:03;102734.12;;;16.38;68.84
57412;BME280;43247;52.828;-8.980;2023-06-01T01:15:01;102732.67;;;16.37;69.00
57412;BME280;43247;52.828;-8.980;2023-06-01T01:16:00;102730.85;;;16.36;69.18
57412;BME280;43247;52.828;-8.980;2023-06-01T01:17:02;102734.60;;;16.34;69.14
57412;BME280;43247;52.828;-8.980;2023-06-01T01:18:04;102728.60;;;16.33;69.26
57412;BME280;43247;52.828;-8.980;2023-06-01T01:19:09;102728.69;;;16.32;69.12
57412;BME280;43247;52.828;-8.980;2023-06-01T01:20:02;102729.76;;;16.30;69.10
57412;BME280;43247;52.828;-8.980;2023-06-01T01:21:01;102726.89;;;16.29;69.22
57412;BME280;43247;52.828;-8.980;2023-06-01T01:22:07;102725.70;;;16.27;69.35
57412;BME280;43247;52.828;-8.980;2023-06-01T01:23:06;102723.14;;;16.26;69.37
57412;BME280;43247;52.828;-8.980;2023-06-01T01:24:06;102723.81;;;16.25;69.46
57412;BME280;43247;52.828;-8.980;2023-06-01T01:26:09;102721.11;;;16.22;69.57
57412;BME280;43247;52.828;-8.980;2023-06-01T01:27:08;102721.48;;;16.21;69.78
57412;BME280;43247;52.828;-8.980;2023-06-01T01:28:08;102722.60;;;16.20;69.78
57412;BME280;43247;52.828;-8.980;2023-06-01T01:29:01;102725.73;;;16.19;69.86
57412;BME280;43247;52.828;-8.980;2023-06-01T01:30:02;102722.53;;;16.18;69.69
57412;BME280;43247;52.828;-8.980;2023-06-01T01:31:00;102724.08;;;16.19;70.20
57412;BME280;43247;52.828;-8.980;2023-06-01T01:32:00;102722.96;;;16.18;69.89
57412;BME280;43247;52.828;-8.980;2023-06-01T01:33:01;102723.00;;;16.16;69.76
57412;BME280;43247;52.828;-8.980;2023-06-01T01:34:01;102723.23;;;16.15;69.81
57412;BME280;43247;52.828;-8.980;2023-06-01T01:35:01;102726.44;;;16.14;69.92
57412;BME280;43247;52.828;-8.980;2023-06-01T01:36:02;102724.87;;;16.13;69.96
57412;BME280;43247;52.828;-8.980;2023-06-01T01:37:03;102724.31;;;16.12;69.96
57412;BME280;43247;52.828;-8.980;2023-06-01T01:38:02;102725.60;;;16.11;70.01
57412;BME280;43247;52.828;-8.980;2023-06-01T01:39:03;102722.59;;;16.10;70.03
57412;BME280;43247;52.828;-8.980;2023-06-01T01:40:04;102723.11;;;16.10;70.19
57412;BME280;43247;52.828;-8.980;2023-06-01T01:41:04;102721.74;;;16.09;70.17
57412;BME280;43247;52.828;-8.980;2023-06-01T01:42:04;102721.59;;;16.08;70.19
57412;BME280;43247;52.828;-8.980;2023-06-01T01:43:04;102721.35;;;16.07;70.14
57412;BME280;43247;52.828;-8.980;2023-06-01T01:44:05;102719.70;;;16.06;70.18
57412;BME280;43247;52.828;-8.980;2023-06-01T01:45:05;102718.15;;;16.06;70.30
57412;BME280;43247;52.828;-8.980;2023-06-01T01:46:15;102715.56;;;16.05;70.33
57412;BME280;43247;52.828;-8.980;2023-06-01T01:47:09;102716.34;;;16.04;70.37
57412;BME280;43247;52.828;-8.980;2023-06-01T01:48:11;102716.05;;;16.03;70.41
57412;BME280;43247;52.828;-8.980;2023-06-01T01:49:16;102715.76;;;16.02;70.36
57412;BME280;43247;52.828;-8.980;2023-06-01T01:50:10;102717.37;;;16.00;70.41
57412;BME280;43247;52.828;-8.980;2023-06-01T01:51:12;102717.32;;;15.99;70.46
57412;BME280;43247;52.828;-8.980;2023-06-01T01:52:12;102716.20;;;15.99;70.50
57412;BME280;43247;52.828;-8.980;2023-06-01T01:53:08;102716.96;;;15.98;70.49
57412;BME280;43247;52.828;-8.980;2023-06-01T01:54:08;102715.67;;;15.97;70.46
57412;BME280;43247;52.828;-8.980;2023-06-01T01:55:09;102716.14;;;15.96;70.50
57412;BME280;43247;52.828;-8.980;2023-06-01T01:56:08;102716.02;;;15.96;70.46
57412;BME280;43247;52.828;-8.980;2023-06-01T01:57:08;102713.21;;;15.95;70.49
57412;BME280;43247;52.828;-8.980;2023-06-01T01:58:09;102711.75;;;15.95;70.60
57412;BME280;43247;52.828;-8.980;2023-06-01T01:59:09;102709.08;;;15.93;70.59
57412;BME280;43247;52.828;-8.980;2023-06-01T02:00:10;102710.39;;;15.92;70.59
57412;BME280;43247;52.828;-8.980;2023-06-01T02:01:10;102708.36;;;15.92;70.55
57412;BME280;43247;52.828;-8.980;2023-06-01T02:02:10;102708.31;;;15.91;70.45
57412;BME280;43247;52.828;-8.980;2023-06-01T02:03:13;102706.36;;;15.91;70.53
57412;BME280;43247;52.828;-8.980;2023-06-01T02:04:11;102705.82;;;15.90;70.50
57412;BME280;43247;52.828;-8.980;2023-06-01T02:05:11;102706.64;;;15.89;70.46
57412;BME280;43247;52.828;-8.980;2023-06-01T02:06:11;102703.03;;;15.88;70.43
57412;BME280;43247;52.828;-8.980;2023-06-01T02:07:12;102702.04;;;15.87;70.35
57412;BME280;43247;52.828;-8.980;2023-06-01T02:08:12;102700.24;;;15.87;70.39
57412;BME280;43247;52.828;-8.980;2023-06-01T02:09:12;102699.45;;;15.86;70.38
57412;BME280;43247;52.828;-8.980;2023-06-01T02:10:12;102698.51;;;15.85;70.37
57412;BME280;43247;52.828;-8.980;2023-06-01T02:11:12;102697.54;;;15.85;70.30
57412;BME280;43247;52.828;-8.980;2023-06-01T02:12:12;102699.42;;;15.84;70.25
57412;BME280;43247;52.828;-8.980;2023-06-01T02:13:12;102695.61;;;15.84;70.22
57412;BME280;43247;52.828;-8.980;2023-06-01T02:14:13;102695.61;;;15.83;70.33
57412;BME280;43247;52.828;-8.980;2023-06-01T02:15:13;102697.08;;;15.83;70.25
57412;BME280;43247;52.828;-8.980;2023-06-01T02:16:14;102696.43;;;15.82;70.33
57412;BME280;43247;52.828;-8.980;2023-06-01T02:17:14;102696.41;;;15.83;70.43
57412;BME280;43247;52.828;-8.980;2023-06-01T02:18:14;102694.46;;;15.82;70.31
57412;BME280;43247;52.828;-8.980;2023-06-01T02:19:15;102693.67;;;15.81;70.11
57412;BME280;43247;52.828;-8.980;2023-06-01T02:20:16;102693.24;;;15.81;70.23
57412;BME280;43247;52.828;-8.980;2023-06-01T02:21:16;102690.88;;;15.80;70.14
57412;BME280;43247;52.828;-8.980;2023-06-01T02:22:16;102688.67;;;15.79;70.26
57412;BME280;43247;52.828;-8.980;2023-06-01T02:23:16;102688.40;;;15.78;70.31
57412;BME280;43247;52.828;-8.980;2023-06-01T02:24:17;102685.12;;;15.78;70.35
57412;BME280;43247;52.828;-8.980;2023-06-01T02:25:17;102687.25;;;15.77;70.34
57412;BME280;43247;52.828;-8.980;2023-06-01T02:26:17;102687.66;;;15.77;70.34
57412;BME280;43247;52.828;-8.980;2023-06-01T02:27:18;102688.13;;;15.76;70.39
57412;BME280;43247;52.828;-8.980;2023-06-01T02:28:19;102688.49;;;15.76;70.38
57412;BME280;43247;52.828;-8.980;2023-06-01T02:29:20;102685.75;;;15.75;70.26
57412;BME280;43247;52.828;-8.980;2023-06-01T02:30:19;102687.22;;;15.75;70.37
57412;BME280;43247;52.828;-8.980;2023-06-01T02:31:19;102686.63;;;15.74;70.44
57412;BME280;43247;52.828;-8.980;2023-06-01T02:32:20;102684.75;;;15.74;70.39
57412;BME280;43247;52.828;-8.980;2023-06-01T02:33:20;102684.86;;;15.73;70.49
57412;BME280;43247;52.828;-8.980;2023-06-01T02:34:20;102682.70;;;15.73;70.44
57412;BME280;43247;52.828;-8.980;2023-06-01T02:35:20;102683.57;;;15.73;70.41
57412;BME280;43247;52.828;-8.980;2023-06-01T02:36:21;102684.15;;;15.72;70.37
57412;BME280;43247;52.828;-8.980;2023-06-01T02:37:21;102684.04;;;15.71;70.30
57412;BME280;43247;52.828;-8.980;2023-06-01T02:38:22;102685.04;;;15.71;70.34
57412;BME280;43247;52.828;-8.980;2023-06-01T02:39:22;102686.61;;;15.70;70.38
57412;BME280;43247;52.828;-8.980;2023-06-01T02:40:22;102686.57;;;15.69;70.46
57412;BME280;43247;52.828;-8.980;2023-06-01T02:41:22;102687.40;;;15.69;70.59
57412;BME280;43247;52.828;-8.980;2023-06-01T02:42:22;102687.92;;;15.68;70.62
57412;BME280;43247;52.828;-8.980;2023-06-01T02:43:22;102690.11;;;15.67;70.59
57412;BME280;43247;52.828;-8.980;2023-06-01T02:44:22;102687.37;;;15.66;70.61
57412;BME280;43247;52.828;-8.980;2023-06-01T02:45:23;102688.84;;;15.66;70.57
57412;BME280;43247;52.828;-8.980;2023-06-01T02:46:23;102686.12;;;15.65;70.68
57412;BME280;43247;52.828;-8.980;2023-06-01T02:47:23;102687.38;;;15.65;70.72
57412;BME280;43247;52.828;-8.980;2023-06-01T02:48:24;102685.81;;;15.65;70.66
57412;BME280;43247;52.828;-8.980;2023-06-01T02:49:24;102685.95;;;15.64;70.65
57412;BME280;43247;52.828;-8.980;2023-06-01T02:50:25;102684.67;;;15.63;70.65
57412;BME280;43247;52.828;-8.980;2023-06-01T02:51:25;102685.90;;;15.63;70.70
57412;BME280;43247;52.828;-8.980;2023-06-01T02:52:25;102685.71;;;15.62;70.62
57412;BME280;43247;52.828;-8.980;2023-06-01T02:53:25;102684.49;;;15.62;70.65
57412;BME280;43247;52.828;-8.980;2023-06-01T02:54:25;102683.56;;;15.61;70.66
57412;BME280;43247;52.828;-8.980;2023-06-01T02:55:25;102683.87;;;15.61;70.75
57412;BME280;43247;52.828;-8.980;2023-06-01T02:56:26;102685.51;;;15.60;70.73
57412;BME280;43247;52.828;-8.980;2023-06-01T02:57:26;102684.66;;;15.59;70.71
57412;BME280;43247;52.828;-8.980;2023-06-01T02:58:26;102686.34;;;15.59;70.58
57412;BME280;43247;52.828;-8.980;2023-06-01T02:59:26;102683.54;;;15.58;70.57
57412;BME280;43247;52.828;-8.980;2023-06-01T03:00:26;102684.34;;;15.57;70.63
57412;BME280;43247;52.828;-8.980;2023-06-01T03:01:27;102686.98;;;15.57;70.64
57412;BME280;43247;52.828;-8.980;2023-06-01T03:02:27;102687.01;;;15.56;70.58
57412;BME280;43247;52.828;-8.980;2023-06-01T03:03:27;102686.46;;;15.56;70.69
57412;BME280;43247;52.828;-8.980;2023-06-01T03:04:28;102686.24;;;15.56;70.65
57412;BME280;43247;52.828;-8.980;2023-06-01T03:05:28;102687.84;;;15.54;70.63
57412;BME280;43247;52.828;-8.980;2023-06-01T03:06:28;102686.69;;;15.54;70.62
57412;BME280;43247;52.828;-8.980;2023-06-01T03:07:28;102687.81;;;15.54;70.70
57412;BME280;43247;52.828;-8.980;2023-06-01T03:08:29;102688.57;;;15.53;70.65
57412;BME280;43247;52.828;-8.980;2023-06-01T03:09:29;102686.64;;;15.53;70.68
57412;BME280;43247;52.828;-8.980;2023-06-01T03:10:30;102689.21;;;15.52;70.68
57412;BME280;43247;52.828;-8.980;2023-06-01T03:11:30;102686.28;;;15.52;70.65
57412;BME280;43247;52.828;-8.980;2023-06-01T03:12:30;102688.55;;;15.52;70.50
57412;BME280;43247;52.828;-8.980;2023-06-01T03:13:30;102685.90;;;15.51;70.57
57412;BME280;43247;52.828;-8.980;2023-06-01T03:14:30;102685.69;;;15.51;70.60
57412;BME280;43247;52.828;-8.980;2023-06-01T03:15:31;102685.26;;;15.50;70.57
57412;BME280;43247;52.828;-8.980;2023-06-01T03:16:31;102682.51;;;15.49;70.60
57412;BME280;43247;52.828;-8.980;2023-06-01T03:17:32;102683.54;;;15.48;70.57
57412;BME280;43247;52.828;-8.980;2023-06-01T03:18:31;102684.16;;;15.47;70.52
57412;BME280;43247;52.828;-8.980;2023-06-01T03:19:32;102682.13;;;15.46;70.52
57412;BME280;43247;52.828;-8.980;2023-06-01T03:20:32;102683.53;;;15.45;70.41
57412;BME280;43247;52.828;-8.980;2023-06-01T03:21:32;102682.98;;;15.44;70.51
57412;BME280;43247;52.828;-8.980;2023-06-01T03:22:33;102682.82;;;15.43;70.54
57412;BME280;43247;52.828;-8.980;2023-06-01T03:23:33;102681.76;;;15.42;70.59
57412;BME280;43247;52.828;-8.980;2023-06-01T03:24:34;102680.48;;;15.41;70.51
57412;BME280;43247;52.828;-8.980;2023-06-01T03:25:34;102683.53;;;15.40;70.47
57412;BME280;43247;52.828;-8.980;2023-06-01T03:26:34;102682.45;;;15.39;70.47
57412;BME280;43247;52.828;-8.980;2023-06-01T03:27:34;102682.95;;;15.38;70.48
57412;BME280;43247;52.828;-8.980;2023-06-01T03:28:34;102683.88;;;15.37;70.41
57412;BME280;43247;52.828;-8.980;2023-06-01T03:29:34;102683.07;;;15.36;70.36
57412;BME280;43247;52.828;-8.980;2023-06-01T03:30:35;102682.97;;;15.35;70.37
57412;BME280;43247;52.828;-8.980;2023-06-01T03:31:35;102683.87;;;15.34;70.30
57412;BME280;43247;52.828;-8.980;2023-06-01T03:32:35;102684.31;;;15.34;70.44
57412;BME280;43247;52.828;-8.980;2023-06-01T03:33:35;102685.06;;;15.33;70.46
57412;BME280;43247;52.828;-8.980;2023-06-01T03:34:35;102685.40;;;15.32;70.40
57412;BME280;43247;52.828;-8.980;2023-06-01T03:35:36;102686.44;;;15.31;70.38
57412;BME280;43247;52.828;-8.980;2023-06-01T03:36:37;102685.92;;;15.30;70.41
57412;BME280;43247;52.828;-8.980;2023-06-01T03:37:39;102687.21;;;15.29;70.50
57412;BME280;43247;52.828;-8.980;2023-06-01T03:38:37;102685.92;;;15.28;70.60
57412;BME280;43247;52.828;-8.980;2023-06-01T03:39:38;102688.28;;;15.27;70.51
57412;BME280;43247;52.828;-8.980;2023-06-01T03:40:38;102689.02;;;15.27;70.57
57412;BME280;43247;52.828;-8.980;2023-06-01T03:41:40;102690.88;;;15.26;70.57
57412;BME280;43247;52.828;-8.980;2023-06-01T03:42:42;102690.44;;;15.25;70.59
57412;BME280;43247;52.828;-8.980;2023-06-01T03:43:41;102690.99;;;15.24;70.63
57412;BME280;43247;52.828;-8.980;2023-06-01T03:44:41;102693.49;;;15.24;70.67
57412;BME280;43247;52.828;-8.980;2023-06-01T03:45:42;102693.23;;;15.23;70.67
57412;BME280;43247;52.828;-8.980;2023-06-01T03:46:42;102691.97;;;15.22;70.77
57412;BME280;43247;52.828;-8.980;2023-06-01T03:47:42;102691.13;;;15.21;70.70
57412;BME280;43247;52.828;-8.980;2023-06-01T03:48:43;102692.76;;;15.20;70.58
57412;BME280;43247;52.828;-8.980;2023-06-01T03:49:43;102694.24;;;15.20;70.70
57412;BME280;43247;52.828;-8.980;2023-06-01T03:50:43;102695.49;;;15.19;70.88
57412;BME280;43247;52.828;-8.980;2023-06-01T03:51:43;102694.85;;;15.18;70.79
57412;BME280;43247;52.828;-8.980;2023-06-01T03:52:44;102694.33;;;15.17;70.87
57412;BME280;43247;52.828;-8.980;2023-06-01T03:53:44;102692.97;;;15.16;70.85
57412;BME280;43247;52.828;-8.980;2023-06-01T03:54:44;102692.78;;;15.15;70.82
57412;BME280;43247;52.828;-8.980;2023-06-01T03:55:45;102692.26;;;15.15;70.89
57412;BME280;43247;52.828;-8.980;2023-06-01T03:56:45;102693.06;;;15.14;70.86
57412;BME280;43247;52.828;-8.980;2023-06-01T03:57:45;102692.43;;;15.14;70.95
57412;BME280;43247;52.828;-8.980;2023-06-01T03:58:46;102692.90;;;15.13;71.02
57412;BME280;43247;52.828;-8.980;2023-06-01T03:59:46;102693.57;;;15.12;71.11
57412;BME280;43247;52.828;-8.980;2023-06-01T04:00:46;102692.33;;;15.11;71.09
57412;BME280;43247;52.828;-8.980;2023-06-01T04:01:46;102693.73;;;15.10;71.16
57412;BME280;43247;52.828;-8.980;2023-06-01T04:02:48;102693.19;;;15.10;71.20
57412;BME280;43247;52.828;-8.980;2023-06-01T04:03:47;102694.93;;;15.09;71.16
57412;BME280;43247;52.828;-8.980;2023-06-01T04:04:47;102693.23;;;15.08;71.18
57412;BME280;43247;52.828;-8.980;2023-06-01T04:05:47;102693.52;;;15.08;71.25
57412;BME280;43247;52.828;-8.980;2023-06-01T04:06:47;102695.95;;;15.08;71.18
57412;BME280;43247;52.828;-8.980;2023-06-01T04:07:49;102696.60;;;15.07;71.20
57412;BME280;43247;52.828;-8.980;2023-06-01T04:08:48;102696.10;;;15.07;71.34
57412;BME280;43247;52.828;-8.980;2023-06-01T04:09:48;102696.05;;;15.06;71.35
57412;BME280;43247;52.828;-8.980;2023-06-01T04:10:48;102695.57;;;15.05;71.31
57412;BME280;43247;52.828;-8.980;2023-06-01T04:11:49;102694.79;;;15.05;71.45
57412;BME280;43247;52.828;-8.980;2023-06-01T04:12:50;102697.46;;;15.04;71.36
57412;BME280;43247;52.828;-8.980;2023-06-01T04:13:49;102695.79;;;15.03;71.31
57412;BME280;43247;52.828;-8.980;2023-06-01T04:14:49;102697.13;;;15.02;71.28
57412;BME280;43247;52.828;-8.980;2023-06-01T04:15:49;102694.22;;;15.02;71.32
57412;BME280;43247;52.828;-8.980;2023-06-01T04:16:50;102698.48;;;15.02;71.35
57412;BME280;43247;52.828;-8.980;2023-06-01T04:17:51;102696.61;;;15.01;71.30
57412;BME280;43247;52.828;-8.980;2023-06-01T04:18:51;102696.99;;;15.02;71.34
57412;BME280;43247;52.828;-8.980;2023-06-01T04:19:52;102698.32;;;15.01;71.30
57412;BME280;43247;52.828;-8.980;2023-06-01T04:20:52;102697.58;;;15.01;71.34
57412;BME280;43247;52.828;-8.980;2023-06-01T04:21:52;102696.65;;;14.99;71.37
57412;BME280;43247;52.828;-8.980;2023-06-01T04:22:53;102696.84;;;14.99;71.38
57412;BME280;43247;52.828;-8.980;2023-06-01T04:23:53;102697.11;;;14.99;71.27
57412;BME280;43247;52.828;-8.980;2023-06-01T04:24:54;102696.70;;;14.98;71.29
57412;BME280;43247;52.828;-8.980;2023-06-01T04:25:54;102696.58;;;14.97;71.22
57412;BME280;43247;52.828;-8.980;2023-06-01T04:26:54;102694.39;;;14.96;71.21
57412;BME280;43247;52.828;-8.980;2023-06-01T04:27:55;102694.87;;;14.96;71.19
57412;BME280;43247;52.828;-8.980;2023-06-01T04:28:55;102692.97;;;14.95;71.30
57412;BME280;43247;52.828;-8.980;2023-06-01T04:29:55;102692.39;;;14.94;71.43
57412;BME280;43247;52.828;-8.980;2023-06-01T04:30:55;102693.40;;;14.93;71.45
57412;BME280;43247;52.828;-8.980;2023-06-01T04:31:56;102694.06;;;14.92;71.56
57412;BME280;43247;52.828;-8.980;2023-06-01T04:32:56;102695.00;;;14.92;71.57
57412;BME280;43247;52.828;-8.980;2023-06-01T04:33:56;102691.94;;;14.91;71.57
57412;BME280;43247;52.828;-8.980;2023-06-01T04:34:57;102692.25;;;14.91;71.58
57412;BME280;43247;52.828;-8.980;2023-06-01T04:35:57;102696.72;;;14.90;71.60
57412;BME280;43247;52.828;-8.980;2023-06-01T04:36:57;102694.60;;;14.89;71.67
57412;BME280;43247;52.828;-8.980;2023-06-01T04:37:58;102695.64;;;14.89;71.71
57412;BME280;43247;52.828;-8.980;2023-06-01T04:38:58;102696.65;;;14.88;71.74
57412;BME280;43247;52.828;-8.980;2023-06-01T04:39:58;102698.15;;;14.87;71.71
57412;BME280;43247;52.828;-8.980;2023-06-01T04:40:59;102699.99;;;14.87;71.79
57412;BME280;43247;52.828;-8.980;2023-06-01T04:42:00;102699.97;;;14.86;71.80
57412;BME280;43247;52.828;-8.980;2023-06-01T04:43:00;102701.44;;;14.86;71.76
57412;BME280;43247;52.828;-8.980;2023-06-01T04:44:01;102703.61;;;14.85;71.77
57412;BME280;43247;52.828;-8.980;2023-06-01T04:45:01;102702.62;;;14.85;71.76
57412;BME280;43247;52.828;-8.980;2023-06-01T04:46:01;102702.57;;;14.84;71.76
57412;BME280;43247;52.828;-8.980;2023-06-01T04:47:01;102704.19;;;14.84;71.76
57412;BME280;43247;52.828;-8.980;2023-06-01T04:48:01;102704.77;;;14.83;71.72
57412;BME280;43247;52.828;-8.980;2023-06-01T04:49:02;102706.50;;;14.83;71.82
57412;BME280;43247;52.828;-8.980;2023-06-01T04:50:04;102705.27;;;14.82;71.78
57412;BME280;43247;52.828;-8.980;2023-06-01T04:51:03;102706.18;;;14.81;71.77
57412;BME280;43247;52.828;-8.980;2023-06-01T04:52:04;102705.72;;;14.81;71.87
57412;BME280;43247;52.828;-8.980;2023-06-01T04:53:05;102705.46;;;14.81;71.88
57412;BME280;43247;52.828;-8.980;2023-06-01T04:54:04;102702.84;;;14.79;72.02
57412;BME280;43247;52.828;-8.980;2023-06-01T04:55:05;102703.94;;;14.79;71.92
57412;BME280;43247;52.828;-8.980;2023-06-01T04:56:05;102703.61;;;14.79;71.95
57412;BME280;43247;52.828;-8.980;2023-06-01T04:57:06;102700.41;;;14.78;72.00
57412;BME280;43247;52.828;-8.980;2023-06-01T04:58:06;102701.34;;;14.77;71.92
57412;BME280;43247;52.828;-8.980;2023-06-01T04:59:06;102700.85;;;14.77;71.97
57412;BME280;43247;52.828;-8.980;2023-06-01T05:00:07;102702.54;;;14.77;72.05
57412;BME280;43247;52.828;-8.980;2023-06-01T05:01:06;102700.51;;;14.76;72.00
57412;BME280;43247;52.828;-8.980;2023-06-01T05:02:07;102702.90;;;14.76;72.04
57412;BME280;43247;52.828;-8.980;2023-06-01T05:03:08;102702.40;;;14.76;71.97
57412;BME280;43247;52.828;-8.980;2023-06-01T05:04:08;102701.11;;;14.75;71.96
57412;BME280;43247;52.828;-8.980;2023-06-01T05:05:09;102699.94;;;14.75;72.09
57412;BME280;43247;52.828;-8.980;2023-06-01T05:06:09;102697.75;;;14.75;72.13
57412;BME280;43247;52.828;-8.980;2023-06-01T05:07:09;102701.11;;;14.74;72.22
57412;BME280;43247;52.828;-8.980;2023-06-01T05:08:09;102698.51;;;14.73;72.11
57412;BME280;43247;52.828;-8.980;2023-06-01T05:09:10;102698.50;;;14.73;72.07
57412;BME280;43247;52.828;-8.980;2023-06-01T05:10:11;102698.12;;;14.72;72.22
57412;BME280;43247;52.828;-8.980;2023-06-01T05:11:10;102700.15;;;14.71;72.18
57412;BME280;43247;52.828;-8.980;2023-06-01T05:12:10;102700.70;;;14.71;72.30